Deerfield Street, New Jersey
Current Conditions -  °F | °C
As of 12:54 PM on Monday 26 Jan 2015 (Local Time) from KMIV Reporting Station
Overcast Overcast  
Wind Chill: 26°   Ceiling: 700
Heat Index: 36°   Visibility: 10mi
Dew Point: 33°   Wind: 18mph
Humidity: 89%   Direction: 50°NE
Pressure: 29.75"   Gusts: 25mph
Location:  39.53°N, 75.23°W
Report Text: KMIV 261754Z AUTO 05016G22KT 10SM OVC007 02/01 A2975 RMK AO2 SLP072 60004 T00220006 10022 21006 57023
Loading
Personal Weather Stations






























Interactive Weather Map New forecast layout! Learn more

10-Day Weather Forecast

Advertisements
Track Severe Weather on mobile